Terminal Aerodrome Forecast
Issued by NWS Louisville, KY

Home | Current Version | Previous Version | Text Only | Print | Product List | Glossary On
Versions: 1 2 3 4 5 6 7 8 9 10 11 12 13 14 15 16 17 18 19 20 21 22
690
FTUS43 KLMK 031731
TAFBWG
TAF
KBWG 031731Z 0318/0418 06003KT P6SM OVC120
     FM040500 07002KT 5SM BR VCSH OVC060
     FM041000 08003KT 4SM -RA OVC015
     FM041500 12006KT 3SM BR VCSH OVC008=

USA.gov is the U.S. government's official web portal to all federal, state and local government web resources and services.